Time;durP1;ratioP1;P1;durP2;ratioP2;P2;SDS_P1;SDS_P2;PMS_P1;PMS_P2;Temp;Humidity;BMP_temperature;BMP_pressure;BME280_temperature;BME280_humidity;BME280_pressure;Samples;Min_cycle;Max_cycle;Signal;HPM_P1;HPM_P2
2023/12/26 00:04:58;;;;;;;2.08;1.45;;;;;;;9.60;100.00;100247.75;10483218;28;20040;-80
2023/12/26 00:09:58;;;;;;;1.48;0.98;;;;;;;9.64;100.00;100241.84;10449880;28;20400;-80
2023/12/26 00:14:59;;;;;;;1.73;0.95;;;;;;;9.64;100.00;100218.31;10435602;28;20039;-80
2023/12/26 00:19:59;;;;;;;4.63;1.67;;;;;;;9.66;100.00;100206.22;10443822;28;20033;-80
2023/12/26 00:25:00;;;;;;;3.28;1.35;;;;;;;9.70;100.00;100195.06;10423558;28;20051;-80
2023/12/26 00:30:01;;;;;;;2.25;1.05;;;;;;;9.66;100.00;100214.03;10437171;28;20051;-79
2023/12/26 00:35:03;;;;;;;1.38;0.70;;;;;;;9.61;100.00;100196.41;10437894;28;20037;-79
2023/12/26 00:40:04;;;;;;;1.55;0.90;;;;;;;9.54;100.00;100208.31;10443726;28;20477;-80
2023/12/26 00:45:05;;;;;;;3.97;1.23;;;;;;;9.37;100.00;100208.50;10440197;28;20048;-80
2023/12/26 00:50:11;;;;;;;4.30;1.53;;;;;;;9.11;100.00;100250.06;10422010;28;20124;-80
2023/12/26 00:55:12;;;;;;;1.90;0.95;;;;;;;8.92;100.00;100247.47;10477167;28;20570;-78
2023/12/26 01:00:12;;;;;;;3.28;1.10;;;;;;;8.77;100.00;100259.00;10480980;28;20045;-80
2023/12/26 01:05:13;;;;;;;2.38;1.20;;;;;;;8.68;100.00;100292.50;10475214;28;20049;-80
2023/12/26 01:10:14;;;;;;;2.85;1.63;;;;;;;8.60;100.00;100299.09;10405055;28;20065;-80
2023/12/26 01:15:14;;;;;;;2.88;1.50;;;;;;;8.55;100.00;100313.63;10440581;28;20046;-79
2023/12/26 01:20:15;;;;;;;5.15;2.42;;;;;;;8.48;100.00;100318.53;10439363;28;20029;-80
2023/12/26 01:25:16;;;;;;;3.53;1.20;;;;;;;8.48;100.00;100336.78;10407415;28;20087;-79
2023/12/26 01:30:16;;;;;;;2.78;1.27;;;;;;;8.47;100.00;100349.75;10413410;28;20478;-79
2023/12/26 01:35:17;;;;;;;3.05;1.75;;;;;;;8.45;100.00;100351.41;10442342;28;20029;-80
2023/12/26 01:40:17;;;;;;;2.67;1.38;;;;;;;8.42;100.00;100366.91;10425494;28;20150;-81
2023/12/26 01:45:18;;;;;;;7.82;1.75;;;;;;;8.38;100.00;100371.97;10444383;28;20041;-82
2023/12/26 01:50:19;;;;;;;2.90;1.45;;;;;;;8.37;100.00;100379.69;10401776;28;20029;-80
2023/12/26 01:55:20;;;;;;;5.40;1.60;;;;;;;8.30;100.00;100383.75;10418613;28;20129;-82
2023/12/26 02:00:21;;;;;;;1.77;1.30;;;;;;;8.29;100.00;100394.97;10413863;28;20060;-80
2023/12/26 02:05:21;;;;;;;4.35;1.80;;;;;;;8.29;100.00;100404.50;10471201;28;20090;-81
2023/12/26 02:10:22;;;;;;;3.05;1.60;;;;;;;8.27;100.00;100390.50;10440833;28;20043;-81
2023/12/26 02:15:22;;;;;;;2.10;1.35;;;;;;;8.27;100.00;100411.34;10463029;28;20174;-82
2023/12/26 02:20:23;;;;;;;4.88;1.50;;;;;;;8.26;100.00;100430.41;10461111;28;20063;-81
2023/12/26 02:25:24;;;;;;;6.22;2.17;;;;;;;8.22;100.00;100432.00;10463241;28;20033;-82
2023/12/26 02:30:24;;;;;;;6.85;2.65;;;;;;;8.20;100.00;100431.91;10453090;28;20033;-82
2023/12/26 02:35:25;;;;;;;4.68;2.10;;;;;;;8.17;100.00;100431.75;10463307;28;20041;-81
2023/12/26 02:40:25;;;;;;;3.40;2.17;;;;;;;8.16;100.00;100432.56;10454205;28;20032;-80
2023/12/26 02:45:26;;;;;;;12.30;2.08;;;;;;;8.15;100.00;100440.31;10449679;28;20036;-81
2023/12/26 02:50:26;;;;;;;2.85;1.63;;;;;;;8.18;100.00;100443.09;10441041;28;20039;-81
2023/12/26 02:55:27;;;;;;;4.38;2.10;;;;;;;8.12;100.00;100448.00;10482096;28;20040;-82
2023/12/26 03:00:27;;;;;;;3.55;1.80;;;;;;;8.16;100.00;100443.00;10451363;28;20387;-80
2023/12/26 03:05:28;;;;;;;2.95;1.45;;;;;;;8.14;100.00;100447.25;10434439;28;20048;-82
2023/12/26 03:10:29;;;;;;;3.28;2.20;;;;;;;8.18;100.00;100422.22;10484154;28;20048;-82
2023/12/26 03:15:29;;;;;;;6.97;2.45;;;;;;;8.19;100.00;100452.69;10450495;28;20093;-82
2023/12/26 03:20:30;;;;;;;4.93;2.50;;;;;;;8.19;100.00;100456.19;10492987;28;20032;-82
2023/12/26 03:25:30;;;;;;;4.20;2.05;;;;;;;8.19;100.00;100453.56;10519325;28;20036;-80
2023/12/26 03:30:32;;;;;;;8.48;2.10;;;;;;;8.21;100.00;100454.56;10490049;28;20037;-82
2023/12/26 03:35:32;;;;;;;3.30;1.98;;;;;;;8.23;100.00;100471.16;10492993;28;20045;-81
2023/12/26 03:40:33;;;;;;;4.97;2.65;;;;;;;8.22;100.00;100461.56;10530495;27;20377;-82
2023/12/26 03:45:33;;;;;;;6.05;2.05;;;;;;;8.25;100.00;100467.75;10509503;28;20044;-82
2023/12/26 03:50:34;;;;;;;3.72;1.98;;;;;;;8.21;100.00;100474.53;10488369;28;20051;-82
2023/12/26 03:55:34;;;;;;;2.92;1.55;;;;;;;8.25;100.00;100475.56;10504473;28;20074;-82
2023/12/26 04:00:35;;;;;;;4.65;1.60;;;;;;;8.26;100.00;100470.44;10443088;28;20119;-82
2023/12/26 04:05:35;;;;;;;4.35;2.47;;;;;;;8.24;100.00;100479.91;10424642;28;20473;-80
2023/12/26 04:10:36;;;;;;;3.97;1.27;;;;;;;8.23;100.00;100481.59;10441807;28;20033;-80
2023/12/26 04:15:36;;;;;;;3.80;1.63;;;;;;;8.23;100.00;100493.75;10431136;28;20054;-83
2023/12/26 04:20:37;;;;;;;8.57;1.70;;;;;;;8.20;100.00;100504.91;10483975;28;20044;-82
2023/12/26 04:25:38;;;;;;;4.00;1.77;;;;;;;8.20;100.00;100504.03;10483203;28;20040;-81
2023/12/26 04:30:39;;;;;;;4.60;2.05;;;;;;;8.14;100.00;100525.44;10496707;28;20044;-83
2023/12/26 04:35:39;;;;;;;10.43;3.20;;;;;;;8.19;100.00;100526.56;10498037;28;20119;-81
2023/12/26 04:40:40;;;;;;;6.82;3.30;;;;;;;8.18;100.00;100524.78;10491730;28;20032;-82
2023/12/26 04:45:40;;;;;;;5.13;2.92;;;;;;;8.21;100.00;100534.50;10484142;28;20119;-83
2023/12/26 04:50:41;;;;;;;6.65;3.15;;;;;;;8.33;100.00;100552.47;10507202;28;20824;-82
2023/12/26 04:55:42;;;;;;;3.00;2.10;;;;;;;8.30;100.00;100550.63;10497906;28;20036;-82
2023/12/26 05:00:43;;;;;;;4.70;2.50;;;;;;;8.35;100.00;100551.75;10485830;28;20042;-82
2023/12/26 05:05:44;;;;;;;6.72;2.67;;;;;;;8.33;100.00;100555.97;10478696;28;20387;-82
2023/12/26 05:10:44;;;;;;;8.52;3.72;;;;;;;8.27;100.00;100560.88;10482232;28;20036;-83
2023/12/26 05:15:45;;;;;;;6.35;3.45;;;;;;;8.24;100.00;100560.72;10493213;28;20059;-83
2023/12/26 05:20:45;;;;;;;9.15;3.28;;;;;;;8.18;100.00;100566.50;10479991;28;20032;-82
2023/12/26 05:25:46;;;;;;;7.57;4.72;;;;;;;8.13;100.00;100578.38;10475863;28;20063;-84
2023/12/26 05:30:47;;;;;;;7.65;3.58;;;;;;;8.10;100.00;100570.41;10495198;28;20040;-85
2023/12/26 05:35:47;;;;;;;5.50;3.50;;;;;;;8.04;100.00;100571.00;10483175;28;20058;-84
2023/12/26 05:40:48;;;;;;;10.10;4.63;;;;;;;7.98;100.00;100588.91;10488085;28;20038;-82
2023/12/26 05:45:48;;;;;;;6.25;3.22;;;;;;;8.03;100.00;100600.47;10480088;28;20082;-84
2023/12/26 05:50:49;;;;;;;6.47;3.72;;;;;;;8.08;100.00;100603.31;10494314;28;20044;-85
2023/12/26 05:55:50;;;;;;;7.55;4.28;;;;;;;8.14;100.00;100615.78;10495794;28;20036;-83
2023/12/26 06:00:50;;;;;;;8.88;3.50;;;;;;;8.11;100.00;100632.16;10485197;28;20029;-83
2023/12/26 06:05:51;;;;;;;4.75;3.20;;;;;;;8.07;100.00;100636.31;10486130;28;20558;-83
2023/12/26 06:10:51;;;;;;;7.25;4.18;;;;;;;8.08;100.00;100632.00;10486906;28;20043;-83
2023/12/26 06:15:52;;;;;;;6.30;3.40;;;;;;;8.11;100.00;100639.97;10471598;28;20442;-83
2023/12/26 06:20:52;;;;;;;8.93;2.80;;;;;;;8.15;100.00;100631.50;10504669;28;20089;-85
2023/12/26 06:25:56;;;;;;;10.48;3.20;;;;;;;8.17;100.00;100642.91;10474805;28;20048;-85
2023/12/26 06:30:57;;;;;;;10.60;4.30;;;;;;;8.20;100.00;100650.00;10516120;27;20480;-85
2023/12/26 06:35:57;;;;;;;7.38;3.05;;;;;;;8.13;100.00;100646.16;10525934;28;20047;-85
2023/12/26 06:40:58;;;;;;;5.50;2.65;;;;;;;8.02;100.00;100643.00;10511042;28;20040;-84
2023/12/26 06:45:58;;;;;;;4.38;2.08;;;;;;;7.92;100.00;100641.59;10474066;28;20472;-83
2023/12/26 06:51:02;;;;;;;9.32;2.47;;;;;;;7.73;100.00;100639.69;10457175;28;20028;-83
2023/12/26 06:56:04;;;;;;;5.85;2.65;;;;;;;7.67;100.00;100638.44;10472442;28;20042;-83
2023/12/26 07:01:09;;;;;;;8.73;2.58;;;;;;;7.63;100.00;100630.44;10469618;28;20093;-82
2023/12/26 07:06:09;;;;;;;5.53;2.20;;;;;;;7.68;100.00;100628.13;10454529;28;20045;-83
2023/12/26 07:11:10;;;;;;;8.80;2.50;;;;;;;7.64;100.00;100629.63;10472390;28;20040;-83
2023/12/26 07:16:10;;;;;;;5.90;2.28;;;;;;;7.66;100.00;100640.16;10495061;28;20037;-84
2023/12/26 07:21:13;;;;;;;5.13;2.28;;;;;;;7.71;100.00;100643.00;10517015;28;20036;-85
2023/12/26 07:26:14;;;;;;;5.43;2.72;;;;;;;7.62;100.00;100659.03;10472531;28;20065;-84
2023/12/26 07:31:20;;;;;;;7.32;3.30;;;;;;;7.49;100.00;100699.09;10470759;28;20101;-83
2023/12/26 07:36:21;;;;;;;6.43;2.72;;;;;;;7.42;100.00;100696.94;10472618;28;20039;-85
2023/12/26 07:41:22;;;;;;;6.45;3.03;;;;;;;7.35;100.00;100703.53;10494024;28;20040;-85
2023/12/26 07:46:24;;;;;;;7.07;2.25;;;;;;;7.15;100.00;100717.97;10443410;28;20042;-82
2023/12/26 07:51:24;;;;;;;7.47;3.58;;;;;;;6.96;100.00;100735.06;10417596;28;21809;-82
2023/12/26 07:56:25;;;;;;;7.13;2.78;;;;;;;6.79;100.00;100754.88;10472020;28;20044;-82
2023/12/26 08:01:26;;;;;;;7.82;4.60;;;;;;;6.68;100.00;100762.00;10472073;28;20082;-81
2023/12/26 08:06:27;;;;;;;4.38;1.63;;;;;;;6.59;100.00;100783.16;10478193;28;20041;-82
2023/12/26 08:11:28;;;;;;;5.22;1.42;;;;;;;6.40;100.00;100790.63;10437829;28;20037;-80
2023/12/26 08:16:28;;;;;;;4.95;1.77;;;;;;;6.30;100.00;100804.72;10452982;28;20102;-79
2023/12/26 08:21:29;;;;;;;3.60;0.93;;;;;;;6.23;100.00;100807.72;10444465;28;20037;-79
2023/12/26 08:26:32;;;;;;;2.85;1.05;;;;;;;6.27;100.00;100820.09;10462088;28;20041;-80
2023/12/26 08:31:33;;;;;;;2.55;0.75;;;;;;;6.32;100.00;100834.31;10454939;28;20381;-81
2023/12/26 08:36:34;;;;;;;5.55;1.20;;;;;;;6.43;100.00;100848.88;10414125;28;20033;-81
2023/12/26 08:41:34;;;;;;;5.32;1.17;;;;;;;6.60;100.00;100873.38;10410435;28;20045;-81
2023/12/26 08:46:35;;;;;;;3.38;1.40;;;;;;;6.81;100.00;100872.03;10418302;28;20063;-81
2023/12/26 08:51:41;;;;;;;4.97;2.30;;;;;;;6.91;100.00;100874.41;10479726;28;20475;-82
2023/12/26 08:56:42;;;;;;;3.25;1.70;;;;;;;7.00;100.00;100884.50;10459885;28;20045;-82
2023/12/26 09:01:42;;;;;;;5.10;1.38;;;;;;;7.11;100.00;100888.66;10463014;28;20040;-81
2023/12/26 09:06:43;;;;;;;7.40;1.63;;;;;;;7.17;100.00;100891.66;10439946;28;20037;-82
2023/12/26 09:11:43;;;;;;;8.35;3.28;;;;;;;7.21;100.00;100916.16;10437960;28;20481;-81
2023/12/26 09:16:44;;;;;;;4.88;2.05;;;;;;;7.42;100.00;100919.19;10442561;28;20119;-79
2023/12/26 09:21:45;;;;;;;4.80;1.70;;;;;;;7.56;100.00;100932.16;10421841;28;20045;-82
2023/12/26 09:26:46;;;;;;;5.38;1.75;;;;;;;7.62;100.00;100935.13;10416497;28;20072;-81
2023/12/26 09:31:46;;;;;;;4.00;2.00;;;;;;;7.71;100.00;100937.38;10489470;28;20550;-82
2023/12/26 09:36:47;;;;;;;10.65;1.92;;;;;;;7.77;100.00;100949.09;10466300;28;20049;-81
2023/12/26 09:41:53;;;;;;;4.07;1.83;;;;;;;7.86;100.00;100964.38;10491330;28;20048;-84
2023/12/26 09:46:54;;;;;;;9.80;2.30;;;;;;;8.08;100.00;100986.50;10469551;28;20451;-85
2023/12/26 09:51:56;;;;;;;6.18;2.08;;;;;;;8.31;100.00;100984.34;10482701;28;20040;-83
2023/12/26 09:56:56;;;;;;;5.13;1.70;;;;;;;8.34;100.00;100975.03;10470683;28;20387;-82
2023/12/26 10:01:57;;;;;;;6.00;1.98;;;;;;;8.40;100.00;100982.28;10474056;28;20052;-82
2023/12/26 10:06:57;;;;;;;4.90;2.63;;;;;;;8.51;100.00;100986.44;10457586;28;20043;-81
2023/12/26 10:11:58;;;;;;;4.78;2.80;;;;;;;8.46;100.00;100993.06;10452063;28;20119;-80
2023/12/26 10:16:59;;;;;;;8.20;2.80;;;;;;;8.31;100.00;101005.22;10490978;28;20028;-80
2023/12/26 10:21:59;;;;;;;5.45;1.25;;;;;;;8.06;100.00;101009.88;10499933;28;20048;-80
2023/12/26 10:27:00;;;;;;;5.32;2.45;;;;;;;7.71;100.00;101023.34;10461249;28;20044;-80
2023/12/26 10:32:03;;;;;;;5.53;1.90;;;;;;;7.41;100.00;101034.59;10474553;28;20040;-79
2023/12/26 10:37:04;;;;;;;3.92;1.48;;;;;;;7.24;100.00;101051.72;10491903;28;20044;-79
2023/12/26 10:42:04;;;;;;;8.07;2.25;;;;;;;7.34;100.00;101048.00;10479419;28;20037;-80
2023/12/26 10:47:05;;;;;;;13.57;3.67;;;;;;;7.52;100.00;101047.38;10460036;28;20468;-81
2023/12/26 10:52:07;;;;;;;4.63;1.25;;;;;;;7.96;100.00;101053.53;10484621;28;20059;-81
2023/12/26 10:57:08;;;;;;;7.60;1.48;;;;;;;8.33;100.00;101058.38;10467050;28;20582;-80
2023/12/26 13:54:51;;;;;;;3.60;2.17;;;;;;;7.68;100.00;101268.06;10500967;28;20047;-79
2023/12/26 13:59:52;;;;;;;12.55;3.03;;;;;;;7.66;100.00;101269.66;10487052;28;20062;-80
2023/12/26 14:04:52;;;;;;;6.00;4.38;;;;;;;7.66;100.00;101269.66;10493683;28;20048;-79
2023/12/26 14:09:53;;;;;;;8.65;3.70;;;;;;;7.63;100.00;101275.59;10504533;28;20100;-82
2023/12/26 14:14:54;;;;;;;10.70;3.35;;;;;;;7.67;100.00;101276.69;10498337;28;20048;-79
2023/12/26 14:19:54;;;;;;;5.82;1.67;;;;;;;7.71;100.00;101297.84;10495740;28;20028;-79
2023/12/26 14:24:55;;;;;;;4.82;1.67;;;;;;;7.82;100.00;101287.22;10484757;28;20128;-78
2023/12/26 14:29:55;;;;;;;3.42;1.88;;;;;;;7.77;100.00;101294.72;10483609;28;20040;-79
2023/12/26 14:34:56;;;;;;;9.43;3.58;;;;;;;7.72;100.00;101310.06;10505374;28;20040;-79
2023/12/26 14:40:34;;;;;;;4.32;2.25;;;;;;;7.71;100.00;101308.28;10486141;28;20041;-79
2023/12/26 14:46:14;;;;;;;4.97;2.63;;;;;;;7.72;100.00;101319.56;10509998;28;20040;-80
2023/12/26 14:51:52;;;;;;;7.93;2.60;;;;;;;7.68;100.00;101339.34;10504726;28;20053;-79
2023/12/26 14:57:30;;;;;;;24.25;16.10;;;;;;;7.64;100.00;101360.75;10508656;28;20047;-79
2023/12/26 15:02:35;;;;;;;11.32;3.53;;;;;;;7.56;100.00;101361.94;10495527;28;20040;-80
2023/12/26 15:07:37;;;;;;;10.98;4.15;;;;;;;7.53;100.00;101360.03;10495352;28;20052;-79
2023/12/26 15:12:37;;;;;;;6.25;1.92;;;;;;;7.54;100.00;101364.44;10489320;28;20573;-80
2023/12/26 15:17:39;;;;;;;5.90;1.98;;;;;;;7.57;100.00;101353.34;10484661;28;20101;-80
2023/12/26 15:22:39;;;;;;;3.63;1.67;;;;;;;7.54;100.00;101363.53;10486396;28;20055;-79
2023/12/26 15:27:48;;;;;;;14.65;3.70;;;;;;;7.49;100.00;101373.63;10482737;28;20047;-79
2023/12/26 15:32:49;;;;;;;10.73;3.65;;;;;;;7.47;100.00;101363.13;10467995;28;20048;-80
2023/12/26 15:37:49;;;;;;;11.87;3.97;;;;;;;7.44;100.00;101373.34;10495071;28;20047;-78
2023/12/26 15:42:50;;;;;;;10.38;4.65;;;;;;;7.38;100.00;101385.03;10490179;28;20048;-78
2023/12/26 15:47:54;;;;;;;5.18;2.20;;;;;;;7.33;100.00;101401.22;10483591;28;20119;-78
2023/12/26 15:52:56;;;;;;;13.18;3.83;;;;;;;7.29;100.00;101412.22;10468824;28;20510;-78
2023/12/26 15:58:00;;;;;;;6.10;3.40;;;;;;;7.24;100.00;101417.94;10447409;28;20048;-78
2023/12/26 16:03:00;;;;;;;9.18;2.78;;;;;;;7.15;100.00;101424.28;10479562;28;20132;-80
2023/12/26 16:08:05;;;;;;;7.53;2.15;;;;;;;7.11;100.00;101442.19;10478717;28;20040;-78
2023/12/26 16:13:06;;;;;;;12.07;4.97;;;;;;;7.12;100.00;101441.38;10479882;28;20055;-77
2023/12/26 16:18:08;;;;;;;15.20;6.00;;;;;;;7.08;100.00;101445.47;10478720;28;20048;-78
2023/12/26 16:23:10;;;;;;;9.88;3.55;;;;;;;7.14;100.00;101452.81;10480590;28;20064;-79
2023/12/26 16:28:15;;;;;;;;;;;;;;;7.11;100.00;101460.41;10467533;28;20519;-78
2023/12/26 16:33:18;;;;;;;15.63;7.43;;;;;;;7.04;100.00;101472.09;10482690;28;20459;-78
2023/12/26 16:38:19;;;;;;;10.32;3.67;;;;;;;6.99;100.00;101484.75;10463842;28;20040;-78
2023/12/26 16:43:20;;;;;;;7.10;3.97;;;;;;;6.97;100.00;101490.66;10479816;28;20530;-78
2023/12/26 16:48:21;;;;;;;10.55;3.95;;;;;;;6.94;100.00;101501.72;10479825;28;20040;-78
2023/12/26 16:53:22;;;;;;;11.27;3.60;;;;;;;6.89;100.00;101504.03;10482232;28;20101;-78
2023/12/26 16:58:23;;;;;;;13.30;4.27;;;;;;;6.82;100.00;101506.97;10482306;28;20032;-78
2023/12/26 17:03:23;;;;;;;22.85;6.72;;;;;;;6.79;100.00;101524.03;10483396;28;20259;-78
2023/12/26 17:08:24;;;;;;;12.93;4.10;;;;;;;6.79;100.00;101524.03;10479319;28;20033;-78
2023/12/26 17:13:25;;;;;;;10.60;3.90;;;;;;;6.75;100.00;101533.34;10462352;28;20037;-78
2023/12/26 17:18:25;;;;;;;20.42;4.47;;;;;;;6.72;100.00;101527.91;10480360;28;20093;-80
2023/12/26 17:23:26;;;;;;;15.50;4.70;;;;;;;6.75;100.00;101538.53;10461468;28;20048;-78
2023/12/26 17:28:27;;;;;;;23.30;5.30;;;;;;;6.68;100.00;101531.94;10478428;28;20047;-79
2023/12/26 17:33:27;;;;;;;17.05;4.97;;;;;;;6.65;100.00;101531.72;10478945;28;20033;-78
2023/12/26 17:38:28;;;;;;;12.85;4.28;;;;;;;6.64;100.00;101534.22;10485912;28;20043;-78
2023/12/26 17:43:28;;;;;;;15.75;8.20;;;;;;;6.66;100.00;101537.84;10486764;28;20100;-78
2023/12/26 17:48:33;;;;;;;15.50;6.10;;;;;;;6.65;100.00;101538.66;10479082;28;20048;-79
2023/12/26 17:53:36;;;;;;;9.68;4.35;;;;;;;6.63;100.00;101542.81;10481068;28;20124;-79
2023/12/26 17:58:37;;;;;;;11.30;5.20;;;;;;;6.58;100.00;101532.06;10476434;28;20047;-78
2023/12/26 18:03:38;;;;;;;7.20;3.53;;;;;;;6.53;100.00;101538.63;10464799;28;20550;-79
2023/12/26 18:08:42;;;;;;;13.48;5.13;;;;;;;6.46;100.00;101543.34;10489459;28;20044;-79
2023/12/26 18:13:43;;;;;;;11.23;5.05;;;;;;;6.40;100.00;101555.00;10487156;28;20040;-79
2023/12/26 18:18:43;;;;;;;11.82;5.60;;;;;;;6.37;100.00;101559.97;10486577;28;20036;-79
2023/12/26 18:23:44;;;;;;;26.83;6.40;;;;;;;6.37;100.00;101558.25;10487764;28;20037;-79
2023/12/26 18:28:48;;;;;;;10.32;3.58;;;;;;;6.31;100.00;101561.31;10486455;28;20045;-78
2023/12/26 18:33:49;;;;;;;12.65;6.22;;;;;;;6.22;100.00;101570.09;10503952;28;20048;-79
2023/12/26 18:38:50;;;;;;;15.82;5.22;;;;;;;6.15;100.00;101585.22;10486822;28;20039;-78
2023/12/26 18:43:50;;;;;;;14.57;4.47;;;;;;;6.01;100.00;101594.56;10469168;28;20040;-77
2023/12/26 18:48:58;;;;;;;19.13;5.57;;;;;;;5.99;100.00;101603.91;10468483;28;20044;-78
2023/12/26 18:54:02;;;;;;;14.05;5.22;;;;;;;5.96;100.00;101621.84;10488691;28;20060;-78
2023/12/26 18:59:15;;;;;;;10.07;4.63;;;;;;;5.85;100.00;101620.09;10489111;28;20111;-77
2023/12/26 19:04:16;;;;;;;19.40;6.80;;;;;;;5.77;100.00;101610.81;10486855;28;20556;-79
2023/12/26 19:09:16;;;;;;;11.27;5.00;;;;;;;5.65;100.00;101621.09;10466970;28;20037;-78
2023/12/26 19:14:19;;;;;;;8.23;5.07;;;;;;;5.65;100.00;101634.09;10483616;28;20040;-78
2023/12/26 19:19:20;;;;;;;18.88;7.60;;;;;;;5.59;100.00;101630.22;10490105;28;20045;-77
2023/12/26 19:24:21;;;;;;;19.85;8.05;;;;;;;5.55;100.00;101622.06;10485818;28;20033;-78
2023/12/26 19:29:22;;;;;;;15.65;6.72;;;;;;;5.43;100.00;101645.34;10487784;28;20041;-77
2023/12/26 19:34:22;;;;;;;18.52;7.20;;;;;;;5.38;100.00;101654.44;10485652;28;20058;-77
2023/12/26 19:39:24;;;;;;;10.52;6.60;;;;;;;5.44;100.00;101660.16;10508701;28;20062;-78
2023/12/26 19:44:24;;;;;;;15.40;7.03;;;;;;;5.41;100.00;101683.25;10495769;28;20048;-78
2023/12/26 19:49:25;;;;;;;23.40;6.40;;;;;;;5.37;100.00;101687.31;10506690;28;20036;-78
2023/12/26 19:54:27;;;;;;;16.60;5.40;;;;;;;5.29;100.00;101688.38;10500415;28;20054;-78
2023/12/26 19:59:27;;;;;;;12.18;4.40;;;;;;;5.24;100.00;101695.75;10504464;28;20040;-78
2023/12/26 20:04:28;;;;;;;18.77;6.47;;;;;;;5.32;100.00;101703.28;10486747;28;20040;-79
2023/12/26 20:09:29;;;;;;;14.45;5.90;;;;;;;5.37;100.00;101710.69;10486742;28;20040;-80
2023/12/26 20:14:30;;;;;;;10.77;5.10;;;;;;;5.39;100.00;101709.13;10501183;28;20071;-80
2023/12/26 20:19:30;;;;;;;15.98;5.15;;;;;;;5.39;100.00;101698.72;10492435;28;20403;-79
2023/12/26 20:24:31;;;;;;;14.90;6.75;;;;;;;5.38;100.00;101701.19;10499928;28;20163;-79
2023/12/26 20:29:31;;;;;;;12.82;5.30;;;;;;;5.22;100.00;101701.63;10508963;28;20032;-79
2023/12/26 20:34:32;;;;;;;20.83;6.93;;;;;;;5.02;100.00;101702.56;10491742;28;20122;-80
2023/12/26 20:39:32;;;;;;;13.55;5.18;;;;;;;4.80;100.00;101691.28;10473729;28;20119;-79
2023/12/26 20:44:33;;;;;;;14.57;6.60;;;;;;;4.53;100.00;101703.75;10489936;28;20135;-83
2023/12/26 20:49:34;;;;;;;14.82;6.75;;;;;;;4.31;100.00;101713.03;10509217;28;20044;-79
2023/12/26 20:54:35;;;;;;;15.63;4.60;;;;;;;4.08;100.00;101727.50;10498284;28;20041;-79
2023/12/26 20:59:36;;;;;;;14.90;5.73;;;;;;;3.81;100.00;101725.19;10477595;28;20070;-79
2023/12/26 21:04:36;;;;;;;20.30;6.38;;;;;;;3.66;100.00;101726.41;10463238;28;20139;-80
2023/12/26 21:09:37;;;;;;;15.80;5.88;;;;;;;3.59;100.00;101735.31;10505019;28;20044;-79
2023/12/26 21:14:38;;;;;;;19.67;7.93;;;;;;;3.47;100.00;101747.16;10487212;28;20476;-80
2023/12/26 21:19:39;;;;;;;21.27;6.40;;;;;;;3.48;100.00;101741.22;10506247;28;20047;-79
2023/12/26 21:24:39;;;;;;;14.68;7.63;;;;;;;3.42;100.00;101753.59;10472976;28;20051;-79
2023/12/26 21:29:40;;;;;;;14.85;5.95;;;;;;;3.35;100.00;101750.44;10503911;28;20483;-80
2023/12/26 21:34:41;;;;;;;13.32;6.18;;;;;;;3.36;100.00;101754.84;10498824;28;20127;-79
2023/12/26 21:39:41;;;;;;;19.85;6.50;;;;;;;3.38;100.00;101761.06;10476131;28;20127;-79
2023/12/26 21:44:42;;;;;;;23.92;7.85;;;;;;;3.36;100.00;101762.63;10473477;28;20492;-79
2023/12/26 21:49:42;;;;;;;28.05;8.27;;;;;;;3.39;100.00;101756.78;10504385;28;20036;-80
2023/12/26 21:54:43;;;;;;;27.17;8.65;;;;;;;3.44;100.00;101768.47;10480819;28;20091;-82
2023/12/26 21:59:43;;;;;;;28.25;10.68;;;;;;;3.40;100.00;101776.72;10508261;28;20168;-79
2023/12/26 22:04:44;;;;;;;26.73;8.65;;;;;;;3.33;100.00;101783.03;10502990;28;20048;-79
2023/12/26 22:09:44;;;;;;;22.23;8.68;;;;;;;3.21;100.00;101782.81;10479701;28;20040;-80
2023/12/26 22:14:45;;;;;;;18.33;9.27;;;;;;;3.01;100.00;101774.88;10473776;28;20106;-79
2023/12/26 22:19:45;;;;;;;20.38;7.07;;;;;;;2.96;100.00;101792.56;10488230;28;20609;-80
2023/12/26 22:24:46;;;;;;;20.02;8.80;;;;;;;2.86;100.00;101779.56;10481163;28;20064;-81
2023/12/26 22:29:47;;;;;;;16.08;7.63;;;;;;;2.78;100.00;101781.41;10490142;28;20036;-79
2023/12/26 22:34:48;;;;;;;16.83;8.77;;;;;;;2.74;100.00;101792.22;10498588;28;20117;-80
2023/12/26 22:39:48;;;;;;;38.15;9.18;;;;;;;2.67;100.00;101793.34;10495036;28;20980;-79
2023/12/26 22:44:49;;;;;;;19.77;10.20;;;;;;;2.60;100.00;101801.28;10440573;28;20060;-79
2023/12/26 22:49:49;;;;;;;12.98;7.80;;;;;;;2.62;100.00;101803.22;10474535;28;20483;-80
2023/12/26 22:54:50;;;;;;;21.98;9.23;;;;;;;2.62;100.00;101815.25;10485340;28;20072;-80
2023/12/26 22:59:52;;;;;;;16.35;8.07;;;;;;;2.60;100.00;101819.38;10487248;28;20131;-79
2023/12/26 23:04:52;;;;;;;25.83;10.25;;;;;;;2.61;100.00;101826.38;10490475;28;20403;-80
2023/12/26 23:09:53;;;;;;;19.65;8.93;;;;;;;2.65;100.00;101831.06;10483559;28;20047;-79
2023/12/26 23:14:53;;;;;;;22.80;10.75;;;;;;;2.60;100.00;101821.97;10485831;28;20136;-79
2023/12/26 23:19:54;;;;;;;39.10;11.00;;;;;;;2.55;100.00;101816.34;10485118;28;20123;-81
2023/12/26 23:24:54;;;;;;;23.98;9.63;;;;;;;2.50;100.00;101820.16;10484534;28;20177;-80
2023/12/26 23:29:55;;;;;;;35.20;12.95;;;;;;;2.40;100.00;101822.63;10498556;27;20040;-79
2023/12/26 23:34:56;;;;;;;26.42;11.45;;;;;;;2.31;100.00;101818.41;10507628;28;20425;-80
2023/12/26 23:39:56;;;;;;;25.58;11.40;;;;;;;2.22;100.00;101814.03;10493094;28;20036;-80
2023/12/26 23:44:57;;;;;;;20.02;10.73;;;;;;;2.19;100.00;101812.03;10486306;28;20108;-79
2023/12/26 23:49:57;;;;;;;19.67;10.38;;;;;;;2.09;100.00;101801.59;10504831;28;20112;-79
2023/12/26 23:54:58;;;;;;;30.27;10.25;;;;;;;1.93;100.00;101797.53;10507804;28;20115;-79
2023/12/26 23:59:59;;;;;;;21.55;10.77;;;;;;;1.84;100.00;101787.22;10513089;28;20037;-80
